Time;durP1;ratioP1;P1;durP2;ratioP2;P2;SDS_P1;SDS_P2;PMS_P1;PMS_P2;Temp;Humidity;BMP_temperature;BMP_pressure;BME280_temperature;BME280_humidity;BME280_pressure;Samples;Min_cycle;Max_cycle;Signal;HPM_P1;HPM_P2
2023/12/06 06:01:58;;;;;;;1.17;0.90;;;;;;;;;;5217228;23;20525;-78
2023/12/06 06:04:26;;;;;;;2.10;1.00;;;;;;;;;;4938074;29;20791;-78
2023/12/06 06:06:52;;;;;;;1.07;0.97;;;;;;;;;;4938975;29;20428;-78
2023/12/06 06:09:20;;;;;;;1.43;1.33;;;;;;;;;;4940407;29;20402;-78
2023/12/06 06:11:47;;;;;;;1.30;1.20;;;;;;;;;;4938410;29;20984;-79
2023/12/06 06:16:41;;;;;;;2.30;1.20;;;;;;;;;;4916520;29;20474;-77
2023/12/06 06:19:07;;;;;;;1.33;1.10;;;;;;;;;;4918109;29;20413;-76
2023/12/06 06:21:33;;;;;;;1.17;1.07;;;;;;;;;;4918253;29;20403;-76
2023/12/06 06:23:59;;;;;;;3.37;1.30;;;;;;;;;;4918487;29;20469;-77
2023/12/06 06:26:25;;;;;;;1.90;1.33;;;;;;;;;;4900514;29;20537;-76
2023/12/06 06:28:51;;;;;;;1.33;1.30;;;;;;;;;;4898994;29;20777;-78
2023/12/06 06:31:17;;;;;;;4.00;1.10;;;;;;;;;;4899112;29;20423;-76
2023/12/06 06:33:43;;;;;;;0.93;0.93;;;;;;;;;;4899137;29;20583;-76
2023/12/06 06:36:09;;;;;;;1.33;1.30;;;;;;;;;;4897613;29;20966;-75
2023/12/06 06:38:37;;;;;;;1.83;1.30;;;;;;;;;;4898600;29;20423;-76
2023/12/06 06:41:03;;;;;;;2.20;1.27;;;;;;;;;;4897193;29;20433;-76
2023/12/06 06:43:29;;;;;;;1.10;1.00;;;;;;;;;;4898123;29;20426;-76
2023/12/06 06:45:55;;;;;;;1.10;1.00;;;;;;;;;;4898538;29;20444;-76
2023/12/06 06:48:21;;;;;;;1.33;1.23;;;;;;;;;;4898742;29;20424;-76
2023/12/06 06:50:47;;;;;;;2.77;1.10;;;;;;;;;;4891673;29;20899;-76
2023/12/06 06:53:13;;;;;;;1.37;1.10;;;;;;;;;;4879995;29;20767;-76
2023/12/06 06:55:39;;;;;;;1.30;1.30;;;;;;;;;;4879709;29;20566;-77
2023/12/06 06:58:05;;;;;;;2.10;1.43;;;;;;;;;;4878122;29;20432;-76
2023/12/06 07:00:31;;;;;;;1.20;1.10;;;;;;;;;;4880763;29;20420;-77
2023/12/06 07:02:57;;;;;;;0.97;0.90;;;;;;;;;;4879924;29;20472;-76
2023/12/06 07:05:23;;;;;;;1.23;1.20;;;;;;;;;;4879855;29;20443;-76
2023/12/06 07:07:49;;;;;;;1.37;1.30;;;;;;;;;;4879406;29;20925;-76
2023/12/06 07:10:15;;;;;;;3.53;1.60;;;;;;;;;;4885154;29;20825;-76
2023/12/06 07:12:41;;;;;;;1.93;1.40;;;;;;;;;;4898236;29;20418;-77
2023/12/06 07:15:14;;;;;;;1.77;1.40;;;;;;;;;;4897756;29;20574;-76
2023/12/06 07:17:40;;;;;;;2.30;1.30;;;;;;;;;;4897969;29;20476;-77
2023/12/06 07:20:07;;;;;;;1.27;1.10;;;;;;;;;;4897683;29;20407;-77
2023/12/06 07:22:32;;;;;;;1.27;1.17;;;;;;;;;;4895814;29;20443;-77
2023/12/06 07:24:58;;;;;;;1.77;1.40;;;;;;;;;;4880016;29;20920;-77
2023/12/06 07:27:24;;;;;;;2.30;1.40;;;;;;;;;;4879994;29;20790;-77
2023/12/06 07:29:50;;;;;;;2.13;1.43;;;;;;;;;;4886071;29;20420;-77
2023/12/06 07:32:16;;;;;;;2.70;1.50;;;;;;;;;;4885338;29;20448;-77
2023/12/06 07:34:42;;;;;;;2.43;1.50;;;;;;;;;;4880678;29;20892;-77
2023/12/06 07:37:08;;;;;;;1.50;1.40;;;;;;;;;;4880372;29;20420;-77
2023/12/06 07:39:34;;;;;;;5.00;1.40;;;;;;;;;;4879881;29;20432;-76
2023/12/06 07:42:00;;;;;;;1.47;1.37;;;;;;;;;;4879828;29;20413;-77
2023/12/06 07:44:26;;;;;;;3.17;1.47;;;;;;;;;;4881943;29;20484;-76
2023/12/06 07:46:52;;;;;;;1.57;1.50;;;;;;;;;;4880024;29;20449;-76
2023/12/06 07:49:18;;;;;;;2.17;1.67;;;;;;;;;;4896890;29;20487;-76
2023/12/06 07:51:44;;;;;;;2.77;1.87;;;;;;;;;;4897844;29;20455;-76
2023/12/06 07:54:10;;;;;;;2.73;1.70;;;;;;;;;;4904536;29;21023;-76
2023/12/06 07:56:36;;;;;;;4.77;2.37;;;;;;;;;;4883378;29;20936;-77
2023/12/06 07:59:02;;;;;;;1.77;1.67;;;;;;;;;;4889759;29;20920;-77
2023/12/06 08:01:31;;;;;;;2.60;1.30;;;;;;;;;;4902484;29;20430;-76
2023/12/06 08:03:58;;;;;;;3.23;1.57;;;;;;;;;;4897470;29;20494;-74
2023/12/06 08:06:24;;;;;;;1.37;1.33;;;;;;;;;;4895425;29;20494;-76
2023/12/06 08:08:53;;;;;;;4.67;2.30;;;;;;;;;;4886599;29;20894;-76
2023/12/06 08:11:22;;;;;;;5.43;1.90;;;;;;;;;;4897199;29;20423;-75
2023/12/06 08:13:48;;;;;;;3.83;1.80;;;;;;;;;;4894327;29;20526;-76
2023/12/06 08:16:14;;;;;;;6.80;2.23;;;;;;;;;;4895331;29;20471;-76
2023/12/06 08:18:40;;;;;;;3.47;2.83;;;;;;;;;;4896564;29;20457;-76
2023/12/06 08:21:09;;;;;;;4.57;2.40;;;;;;;;;;4896532;29;20419;-77
2023/12/06 08:23:35;;;;;;;5.67;3.27;;;;;;;;;;4896803;29;20422;-76
2023/12/06 08:26:04;;;;;;;5.97;3.03;;;;;;;;;;4896454;29;20939;-76
2023/12/06 08:28:30;;;;;;;5.00;2.90;;;;;;;;;;4896404;29;20434;-76
2023/12/06 08:30:56;;;;;;;4.70;2.93;;;;;;;;;;4896780;29;20919;-76
2023/12/06 08:33:23;;;;;;;5.80;4.03;;;;;;;;;;4896481;29;20506;-76
2023/12/06 08:35:50;;;;;;;6.30;4.40;;;;;;;;;;4895980;29;20482;-76
2023/12/06 08:38:16;;;;;;;12.10;4.90;;;;;;;;;;4895259;29;20454;-76
2023/12/06 08:40:42;;;;;;;6.57;4.87;;;;;;;;;;4887935;29;20493;-76
2023/12/06 08:43:08;;;;;;;11.90;5.93;;;;;;;;;;4878161;29;20417;-77
2023/12/06 08:45:34;;;;;;;8.73;5.50;;;;;;;;;;4890518;29;20482;-76
2023/12/06 08:48:00;;;;;;;14.17;7.60;;;;;;;;;;4878018;29;20428;-78
2023/12/06 08:50:26;;;;;;;10.87;6.13;;;;;;;;;;4894220;29;20439;-77
2023/12/06 08:52:52;;;;;;;12.77;7.20;;;;;;;;;;4896592;29;20423;-76
2023/12/06 08:55:18;;;;;;;10.07;6.77;;;;;;;;;;4892969;29;20673;-76
2023/12/06 08:57:44;;;;;;;12.00;7.53;;;;;;;;;;4877991;29;20778;-76
2023/12/06 09:00:12;;;;;;;12.17;6.83;;;;;;;;;;4891248;29;20454;-76
2023/12/06 09:02:38;;;;;;;12.10;8.27;;;;;;;;;;4894973;29;21626;-76
2023/12/06 09:05:05;;;;;;;12.43;8.37;;;;;;;;;;4894316;29;20463;-75
2023/12/06 09:07:30;;;;;;;16.00;8.10;;;;;;;;;;4897987;29;20450;-76
2023/12/06 09:09:56;;;;;;;15.73;8.90;;;;;;;;;;4899363;29;20899;-75
2023/12/06 09:12:22;;;;;;;12.37;8.17;;;;;;;;;;4898701;29;20799;-77
2023/12/06 09:14:48;;;;;;;13.57;8.30;;;;;;;;;;4900077;29;20479;-76
2023/12/06 09:17:14;;;;;;;18.70;9.93;;;;;;;;;;4896866;29;20971;-77
2023/12/06 09:19:40;;;;;;;15.80;8.80;;;;;;;;;;4899211;29;20911;-77
2023/12/06 09:22:06;;;;;;;15.67;7.87;;;;;;;;;;4901542;29;20869;-77
2023/12/06 09:24:33;;;;;;;12.83;8.23;;;;;;;;;;4900203;29;20475;-78
2023/12/06 09:26:58;;;;;;;14.83;9.23;;;;;;;;;;4900582;29;20899;-78
2023/12/06 09:29:24;;;;;;;17.10;10.53;;;;;;;;;;4900726;29;20451;-78
2023/12/06 09:31:50;;;;;;;12.70;8.07;;;;;;;;;;4889078;29;20465;-77
2023/12/06 09:34:16;;;;;;;13.80;8.67;;;;;;;;;;4893731;29;20501;-77
2023/12/06 09:36:42;;;;;;;18.30;10.00;;;;;;;;;;4884973;29;20415;-77
2023/12/06 09:39:08;;;;;;;17.03;9.80;;;;;;;;;;4898176;29;20521;-76
2023/12/06 09:41:34;;;;;;;13.17;7.60;;;;;;;;;;4898863;29;20514;-77
2023/12/06 09:44:00;;;;;;;32.57;10.63;;;;;;;;;;4899186;29;20434;-78
2023/12/06 09:46:27;;;;;;;14.13;9.13;;;;;;;;;;4899311;29;20454;-76
2023/12/06 09:48:53;;;;;;;15.10;8.60;;;;;;;;;;4899314;29;20918;-78
2023/12/06 09:51:19;;;;;;;14.63;8.63;;;;;;;;;;4898338;29;20412;-77
2023/12/06 09:53:45;;;;;;;13.30;8.30;;;;;;;;;;4899411;29;20875;-77
2023/12/06 09:56:13;;;;;;;18.67;9.73;;;;;;;;;;4899322;29;20446;-77
2023/12/06 09:58:39;;;;;;;19.77;10.17;;;;;;;;;;4896986;29;20432;-78
2023/12/06 10:01:05;;;;;;;15.23;9.20;;;;;;;;;;4884075;29;20440;-76
2023/12/06 10:03:32;;;;;;;15.13;9.17;;;;;;;;;;4897689;29;20423;-78
2023/12/06 10:05:59;;;;;;;28.63;12.93;;;;;;;;;;4895177;29;20440;-79
2023/12/06 10:08:25;;;;;;;17.83;10.50;;;;;;;;;;4896621;29;20425;-81
2023/12/06 10:11:07;;;;;;;13.13;8.97;;;;;;;;;;4891296;29;20216;-80
2023/12/06 10:13:34;;;;;;;16.63;9.70;;;;;;;;;;4887109;29;20437;-79
2023/12/06 10:16:01;;;;;;;18.97;9.63;;;;;;;;;;4886259;29;20489;-79
2023/12/06 10:18:27;;;;;;;19.53;10.67;;;;;;;;;;4886270;29;20420;-79
2023/12/06 10:20:53;;;;;;;16.40;10.00;;;;;;;;;;4887358;29;20409;-79
2023/12/06 10:23:19;;;;;;;19.20;10.57;;;;;;;;;;4886112;29;20413;-79
2023/12/06 10:25:49;;;;;;;17.80;9.77;;;;;;;;;;4884700;29;20447;-78
2023/12/06 10:28:17;;;;;;;14.03;9.17;;;;;;;;;;4888042;29;20397;-81
2023/12/06 10:30:43;;;;;;;15.97;9.13;;;;;;;;;;4880767;29;20428;-77
2023/12/06 10:33:10;;;;;;;13.63;8.73;;;;;;;;;;4888315;29;21034;-78
2023/12/06 10:35:36;;;;;;;17.73;9.40;;;;;;;;;;4896384;29;20571;-79
2023/12/06 10:38:03;;;;;;;24.87;10.63;;;;;;;;;;4884544;29;20800;-76
2023/12/06 10:40:29;;;;;;;16.90;9.17;;;;;;;;;;4891895;29;20484;-78
2023/12/06 10:43:03;;;;;;;19.80;10.83;;;;;;;;;;4902615;29;20427;-78
2023/12/06 10:45:31;;;;;;;16.33;9.17;;;;;;;;;;4889410;29;20463;-77
2023/12/06 10:47:57;;;;;;;14.80;9.20;;;;;;;;;;4898700;29;20431;-77
2023/12/06 10:50:23;;;;;;;15.23;10.53;;;;;;;;;;4885175;29;20420;-77
2023/12/06 10:52:49;;;;;;;14.17;8.10;;;;;;;;;;4881207;29;20435;-77
2023/12/06 10:55:19;;;;;;;16.00;8.40;;;;;;;;;;4883838;29;20475;-78
2023/12/06 10:57:45;;;;;;;17.00;9.20;;;;;;;;;;4900088;29;20419;-77
2023/12/06 11:00:11;;;;;;;14.30;8.70;;;;;;;;;;4898383;29;20415;-77
2023/12/06 11:02:38;;;;;;;13.23;8.53;;;;;;;;;;4898639;29;20483;-76
2023/12/06 11:05:05;;;;;;;15.70;8.90;;;;;;;;;;4904016;29;20439;-77
2023/12/06 11:07:35;;;;;;;17.93;9.57;;;;;;;;;;4900082;29;20420;-77
2023/12/06 11:10:19;;;;;;;13.40;7.73;;;;;;;;;;4905609;29;20430;-77
2023/12/06 11:12:45;;;;;;;13.00;7.97;;;;;;;;;;4883500;29;20496;-77
2023/12/06 11:15:28;;;;;;;13.13;8.60;;;;;;;;;;4884470;29;20511;-77
2023/12/06 11:18:06;;;;;;;15.00;9.10;;;;;;;;;;4903232;29;20411;-77
2023/12/06 11:20:32;;;;;;;14.43;7.73;;;;;;;;;;4891692;29;20837;-77
2023/12/06 11:22:58;;;;;;;10.73;7.10;;;;;;;;;;4897655;29;20900;-77
2023/12/06 11:25:24;;;;;;;13.30;8.00;;;;;;;;;;4903508;29;20494;-72
2023/12/06 11:27:50;;;;;;;14.77;8.30;;;;;;;;;;4898064;29;20423;-78
2023/12/06 11:30:17;;;;;;;13.00;7.40;;;;;;;;;;4897770;29;20822;-76
2023/12/06 11:32:43;;;;;;;17.20;8.60;;;;;;;;;;4903647;29;20419;-77
2023/12/06 11:35:10;;;;;;;11.57;7.60;;;;;;;;;;4899128;29;20998;-76
2023/12/06 11:37:36;;;;;;;16.37;7.17;;;;;;;;;;4894189;29;20440;-77
2023/12/06 11:40:18;;;;;;;13.07;8.43;;;;;;;;;;4887000;29;20450;-76
2023/12/06 11:42:57;;;;;;;13.23;8.03;;;;;;;;;;4887487;29;20420;-77
2023/12/06 11:45:33;;;;;;;14.90;8.40;;;;;;;;;;4897424;29;20473;-77
2023/12/06 11:48:00;;;;;;;16.87;8.37;;;;;;;;;;4896639;29;20437;-76
2023/12/06 11:50:26;;;;;;;13.13;7.77;;;;;;;;;;4897320;29;20495;-76
2023/12/06 11:52:56;;;;;;;14.17;8.63;;;;;;;;;;4897143;29;20919;-77
2023/12/06 11:55:23;;;;;;;16.20;7.87;;;;;;;;;;4887077;29;20479;-76
2023/12/06 11:58:01;;;;;;;14.43;8.40;;;;;;;;;;4890377;29;20429;-77
2023/12/06 12:00:28;;;;;;;18.20;9.87;;;;;;;;;;4897500;29;20423;-76
2023/12/06 12:02:54;;;;;;;14.40;8.30;;;;;;;;;;4891115;29;20416;-76
2023/12/06 12:05:21;;;;;;;15.80;8.80;;;;;;;;;;4878525;29;20815;-76
2023/12/06 12:07:47;;;;;;;16.27;8.33;;;;;;;;;;4883219;29;20431;-77
2023/12/06 12:10:13;;;;;;;16.53;9.13;;;;;;;;;;4888521;29;20434;-76
2023/12/06 12:12:39;;;;;;;17.60;9.50;;;;;;;;;;4897162;29;20430;-76
2023/12/06 12:15:05;;;;;;;16.20;8.20;;;;;;;;;;4889206;29;20491;-76
2023/12/06 12:17:31;;;;;;;14.37;8.63;;;;;;;;;;4897362;29;20415;-75
2023/12/06 12:19:57;;;;;;;19.40;9.17;;;;;;;;;;4902809;29;20521;-74
2023/12/06 12:22:23;;;;;;;13.67;7.77;;;;;;;;;;4895876;29;20435;-73
2023/12/06 12:24:51;;;;;;;14.03;8.63;;;;;;;;;;4899911;29;20470;-74
2023/12/06 12:27:18;;;;;;;15.70;8.50;;;;;;;;;;4897529;29;20837;-76
2023/12/06 12:29:45;;;;;;;15.90;8.37;;;;;;;;;;4887479;29;20428;-76
2023/12/06 12:32:11;;;;;;;11.20;7.13;;;;;;;;;;4894765;29;20484;-73
2023/12/06 12:34:37;;;;;;;14.07;8.10;;;;;;;;;;4905703;29;20479;-75
2023/12/06 12:37:04;;;;;;;15.27;7.30;;;;;;;;;;4887628;29;20431;-75
2023/12/06 12:39:30;;;;;;;11.73;7.77;;;;;;;;;;4889624;29;20423;-75
2023/12/06 12:41:56;;;;;;;12.40;7.77;;;;;;;;;;4894114;29;20423;-74
2023/12/06 12:44:22;;;;;;;19.87;8.30;;;;;;;;;;4900802;29;20791;-73
2023/12/06 12:46:49;;;;;;;15.00;9.00;;;;;;;;;;4900848;29;20423;-73
2023/12/06 12:49:15;;;;;;;14.77;8.00;;;;;;;;;;4896913;29;20759;-77
2023/12/06 12:51:42;;;;;;;14.30;8.60;;;;;;;;;;4898151;29;20482;-76
2023/12/06 12:54:14;;;;;;;12.17;8.40;;;;;;;;;;4894421;29;20489;-77
2023/12/06 12:56:40;;;;;;;21.07;9.03;;;;;;;;;;4889331;29;20451;-77
2023/12/06 12:59:06;;;;;;;12.80;7.40;;;;;;;;;;4900343;29;20453;-77
2023/12/06 13:01:32;;;;;;;14.20;8.80;;;;;;;;;;4887339;29;20421;-77
2023/12/06 13:03:59;;;;;;;11.73;7.27;;;;;;;;;;4882073;29;20931;-77
2023/12/06 13:06:25;;;;;;;12.53;7.47;;;;;;;;;;4881728;29;20815;-76
2023/12/06 13:08:56;;;;;;;12.83;7.97;;;;;;;;;;4896511;29;20415;-78
2023/12/06 13:11:22;;;;;;;15.97;8.73;;;;;;;;;;4901195;29;20462;-77
2023/12/06 13:13:49;;;;;;;12.33;7.37;;;;;;;;;;4895941;29;20468;-77
2023/12/06 13:16:15;;;;;;;11.53;7.27;;;;;;;;;;4898183;29;20963;-78
2023/12/06 13:18:41;;;;;;;14.40;8.53;;;;;;;;;;4900549;29;20415;-77
2023/12/06 13:21:07;;;;;;;13.33;7.50;;;;;;;;;;4896117;29;20495;-77
2023/12/06 13:23:35;;;;;;;13.77;7.77;;;;;;;;;;4900062;29;20423;-77
2023/12/06 13:26:01;;;;;;;21.27;9.80;;;;;;;;;;4900466;29;20815;-76
2023/12/06 13:28:27;;;;;;;17.47;8.67;;;;;;;;;;4889940;29;20420;-78
2023/12/06 13:30:53;;;;;;;13.50;7.90;;;;;;;;;;4898719;29;20971;-78
2023/12/06 13:33:19;;;;;;;12.63;8.40;;;;;;;;;;4904744;29;20420;-78
2023/12/06 13:35:45;;;;;;;12.53;7.47;;;;;;;;;;4895412;29;20484;-78
2023/12/06 13:38:11;;;;;;;10.50;7.03;;;;;;;;;;4894860;29;20501;-78
2023/12/06 13:40:38;;;;;;;14.47;7.60;;;;;;;;;;4890277;29;20518;-73
2023/12/06 13:43:05;;;;;;;15.20;8.03;;;;;;;;;;4892727;29;20931;-74
2023/12/06 13:45:31;;;;;;;17.90;7.80;;;;;;;;;;4880909;29;20476;-74
2023/12/06 13:47:57;;;;;;;12.37;7.10;;;;;;;;;;4895038;29;20471;-74
2023/12/06 13:50:24;;;;;;;15.87;8.07;;;;;;;;;;4897111;29;20921;-74
2023/12/06 13:52:50;;;;;;;12.80;7.43;;;;;;;;;;4899031;29;20423;-74
2023/12/06 13:55:16;;;;;;;10.80;7.27;;;;;;;;;;4899296;29;20478;-76
2023/12/06 13:57:44;;;;;;;10.80;6.60;;;;;;;;;;4900540;29;20416;-76
2023/12/06 14:00:10;;;;;;;11.77;7.70;;;;;;;;;;4900107;29;20790;-81
2023/12/06 14:02:36;;;;;;;10.00;7.27;;;;;;;;;;4903627;29;20455;-82
2023/12/06 14:05:02;;;;;;;14.80;8.37;;;;;;;;;;4901188;29;20463;-76
2023/12/06 14:07:28;;;;;;;13.20;7.00;;;;;;;;;;4901878;29;20415;-76
2023/12/06 14:09:54;;;;;;;12.03;7.13;;;;;;;;;;4901256;29;20426;-76
2023/12/06 14:12:20;;;;;;;14.87;7.73;;;;;;;;;;4899062;29;20432;-76
2023/12/06 14:14:46;;;;;;;16.23;7.63;;;;;;;;;;4898944;29;20482;-75
2023/12/06 14:17:12;;;;;;;13.27;7.83;;;;;;;;;;4899083;29;20420;-75
2023/12/06 14:19:38;;;;;;;15.60;6.90;;;;;;;;;;4898767;29;20982;-76
2023/12/06 14:22:04;;;;;;;15.63;7.80;;;;;;;;;;4895119;29;20428;-75
2023/12/06 14:24:30;;;;;;;11.47;6.40;;;;;;;;;;4886548;29;20972;-76
2023/12/06 14:26:56;;;;;;;11.67;6.40;;;;;;;;;;4880241;29;20500;-76
2023/12/06 14:29:22;;;;;;;18.00;8.70;;;;;;;;;;4898803;29;20468;-76
2023/12/06 14:31:48;;;;;;;15.60;7.50;;;;;;;;;;4894159;29;20442;-74
2023/12/06 14:34:14;;;;;;;12.23;6.97;;;;;;;;;;4888283;29;20460;-77
2023/12/06 14:36:40;;;;;;;10.77;6.67;;;;;;;;;;4883506;29;20413;-79
2023/12/06 14:39:10;;;;;;;12.60;7.43;;;;;;;;;;4897825;29;20792;-77
2023/12/06 14:41:37;;;;;;;12.03;6.60;;;;;;;;;;4903013;29;20423;-76
2023/12/06 14:44:04;;;;;;;13.90;6.80;;;;;;;;;;4901720;29;20787;-77
2023/12/06 14:46:30;;;;;;;18.40;7.60;;;;;;;;;;4897541;29;20452;-77
2023/12/06 14:48:56;;;;;;;19.47;8.40;;;;;;;;;;4900295;29;20430;-78
2023/12/06 14:51:22;;;;;;;15.37;7.73;;;;;;;;;;4905731;29;20475;-77
2023/12/06 14:53:48;;;;;;;15.50;7.87;;;;;;;;;;4899604;29;20793;-74
2023/12/06 14:56:14;;;;;;;12.87;7.83;;;;;;;;;;4893944;29;20535;-73
2023/12/06 14:58:40;;;;;;;13.03;6.17;;;;;;;;;;4902456;29;20416;-76
2023/12/06 15:01:06;;;;;;;17.10;8.53;;;;;;;;;;4905903;29;20431;-76
2023/12/06 15:03:32;;;;;;;11.50;6.97;;;;;;;;;;4899306;29;20788;-77
2023/12/06 15:05:58;;;;;;;10.60;6.90;;;;;;;;;;4898285;29;20546;-76
2023/12/06 15:08:24;;;;;;;11.23;6.53;;;;;;;;;;4894826;29;20492;-75
2023/12/06 15:10:50;;;;;;;17.10;7.23;;;;;;;;;;4897685;29;20419;-76
2023/12/06 15:13:16;;;;;;;11.70;6.90;;;;;;;;;;4898473;29;20419;-76
2023/12/06 15:15:42;;;;;;;10.50;7.00;;;;;;;;;;4895337;29;20511;-76
2023/12/06 15:18:08;;;;;;;16.83;6.63;;;;;;;;;;4894234;29;20416;-76
2023/12/06 15:20:34;;;;;;;11.47;6.47;;;;;;;;;;4897216;29;20791;-76
2023/12/06 15:23:00;;;;;;;14.90;7.30;;;;;;;;;;4889751;29;20416;-76
2023/12/06 15:25:27;;;;;;;16.57;7.57;;;;;;;;;;4896791;29;20455;-74
2023/12/06 15:27:53;;;;;;;11.40;6.70;;;;;;;;;;4897989;29;20904;-75
2023/12/06 15:30:18;;;;;;;9.53;6.53;;;;;;;;;;4897489;29;20431;-73
2023/12/06 15:32:45;;;;;;;13.10;7.30;;;;;;;;;;4895585;29;20427;-75
2023/12/06 15:35:11;;;;;;;14.60;6.90;;;;;;;;;;4896606;29;20475;-74
2023/12/06 15:37:36;;;;;;;12.40;7.07;;;;;;;;;;4897972;29;20415;-74
2023/12/06 15:40:03;;;;;;;14.00;7.20;;;;;;;;;;4891729;29;20450;-74
2023/12/06 15:42:29;;;;;;;10.67;6.60;;;;;;;;;;4898810;29;20434;-74
2023/12/06 15:44:56;;;;;;;12.43;7.17;;;;;;;;;;4893308;29;20512;-74
2023/12/06 15:47:22;;;;;;;14.53;6.90;;;;;;;;;;4895311;29;20924;-74
2023/12/06 15:49:48;;;;;;;10.90;6.47;;;;;;;;;;4897276;29;20435;-75
2023/12/06 15:52:14;;;;;;;15.10;6.63;;;;;;;;;;4893039;29;20424;-76
2023/12/06 15:54:40;;;;;;;12.07;6.80;;;;;;;;;;4893336;29;20547;-75
2023/12/06 15:57:06;;;;;;;14.10;7.80;;;;;;;;;;4897322;29;20416;-75
2023/12/06 15:59:32;;;;;;;13.60;7.63;;;;;;;;;;4897367;29;20895;-75
2023/12/06 16:01:58;;;;;;;18.43;7.20;;;;;;;;;;4892862;29;20416;-75
2023/12/06 16:04:24;;;;;;;12.27;8.00;;;;;;;;;;4894807;29;20847;-75
2023/12/06 16:06:51;;;;;;;11.83;7.40;;;;;;;;;;4896911;29;20522;-75
2023/12/06 16:09:17;;;;;;;16.80;8.37;;;;;;;;;;4892671;29;20436;-75
2023/12/06 16:11:43;;;;;;;12.60;7.67;;;;;;;;;;4889529;29;20415;-75
2023/12/06 16:14:09;;;;;;;12.30;7.67;;;;;;;;;;4897081;29;20462;-75
2023/12/06 16:16:35;;;;;;;16.37;7.20;;;;;;;;;;4896846;29;20470;-74
2023/12/06 16:19:02;;;;;;;15.30;7.87;;;;;;;;;;4897060;29;20478;-75
2023/12/06 16:21:27;;;;;;;16.53;8.00;;;;;;;;;;4897046;29;20430;-75
2023/12/06 16:23:54;;;;;;;13.30;7.70;;;;;;;;;;4896930;29;20411;-76
2023/12/06 16:26:20;;;;;;;12.27;7.67;;;;;;;;;;4896608;29;20931;-76
2023/12/06 16:28:46;;;;;;;14.00;7.87;;;;;;;;;;4896694;29;20430;-75
2023/12/06 16:31:12;;;;;;;17.33;8.40;;;;;;;;;;4897033;29;20415;-76
2023/12/06 16:33:39;;;;;;;13.27;8.20;;;;;;;;;;4899111;29;20427;-75
2023/12/06 16:36:05;;;;;;;11.00;7.20;;;;;;;;;;4902752;29;20518;-76
2023/12/06 16:38:31;;;;;;;13.13;7.30;;;;;;;;;;4897278;29;20830;-76
2023/12/06 16:40:57;;;;;;;14.57;7.70;;;;;;;;;;4896861;29;20487;-75
2023/12/06 16:43:25;;;;;;;15.47;8.37;;;;;;;;;;4895602;29;20908;-75
2023/12/06 16:45:51;;;;;;;15.00;7.47;;;;;;;;;;4898570;29;20439;-75
2023/12/06 16:48:17;;;;;;;14.30;7.93;;;;;;;;;;4901928;29;20482;-76
2023/12/06 16:50:43;;;;;;;15.00;8.30;;;;;;;;;;4896988;29;20463;-76
2023/12/06 16:53:09;;;;;;;15.70;8.67;;;;;;;;;;4897097;29;20419;-75
2023/12/06 16:55:35;;;;;;;14.97;8.03;;;;;;;;;;4899172;29;21046;-75
2023/12/06 16:58:01;;;;;;;21.13;10.83;;;;;;;;;;4915743;29;20411;-75
2023/12/06 17:00:27;;;;;;;14.23;8.70;;;;;;;;;;4916834;29;20447;-76
2023/12/06 17:02:53;;;;;;;15.30;8.50;;;;;;;;;;4917365;29;20487;-76
2023/12/06 17:05:19;;;;;;;17.40;8.40;;;;;;;;;;4902333;29;21006;-75
2023/12/06 17:07:45;;;;;;;12.37;7.83;;;;;;;;;;4897639;29;20774;-76
2023/12/06 17:10:11;;;;;;;15.23;8.87;;;;;;;;;;4897122;29;20420;-75
2023/12/06 17:12:37;;;;;;;16.33;9.10;;;;;;;;;;4897020;29;20471;-76
2023/12/06 17:15:04;;;;;;;16.67;9.50;;;;;;;;;;4894839;29;20486;-75
2023/12/06 17:17:30;;;;;;;15.40;9.00;;;;;;;;;;4896614;29;20786;-75
2023/12/06 17:19:56;;;;;;;16.43;8.17;;;;;;;;;;4896669;29;20414;-75
2023/12/06 17:22:23;;;;;;;20.30;10.77;;;;;;;;;;4894108;29;20530;-76
2023/12/06 17:24:49;;;;;;;12.97;8.70;;;;;;;;;;4888364;29;20458;-76
2023/12/06 17:27:16;;;;;;;20.43;9.00;;;;;;;;;;4895335;29;20903;-75
2023/12/06 17:29:42;;;;;;;19.40;9.53;;;;;;;;;;4903337;29;20503;-74
2023/12/06 17:32:09;;;;;;;19.87;10.07;;;;;;;;;;4902114;29;20427;-76
2023/12/06 17:34:35;;;;;;;14.83;9.50;;;;;;;;;;4900101;29;20509;-76
2023/12/06 17:37:01;;;;;;;16.50;9.00;;;;;;;;;;4895588;29;20416;-75
2023/12/06 17:39:28;;;;;;;17.00;9.10;;;;;;;;;;4897425;29;20416;-74
2023/12/06 17:41:54;;;;;;;22.47;10.27;;;;;;;;;;4895458;29;20841;-75
2023/12/06 17:44:20;;;;;;;16.37;10.20;;;;;;;;;;4896005;29;20793;-74
2023/12/06 17:46:46;;;;;;;16.83;8.67;;;;;;;;;;4899851;29;20419;-74
2023/12/06 17:49:12;;;;;;;17.20;8.53;;;;;;;;;;4899090;29;20912;-75
2023/12/06 17:51:38;;;;;;;19.00;8.60;;;;;;;;;;4899003;29;20423;-75
2023/12/06 17:54:04;;;;;;;16.87;9.00;;;;;;;;;;4899097;29;20427;-76
2023/12/06 17:56:31;;;;;;;16.17;9.67;;;;;;;;;;4899071;29;20455;-74
2023/12/06 17:58:57;;;;;;;16.10;9.00;;;;;;;;;;4899207;29;20419;-76
2023/12/06 18:01:28;;;;;;;14.00;7.70;;;;;;;;;;4899393;29;20424;-75
2023/12/06 18:03:58;;;;;;;21.57;9.40;;;;;;;;;;4899440;29;20522;-74
2023/12/06 18:06:24;;;;;;;18.47;8.10;;;;;;;;;;4894697;29;20448;-74
2023/12/06 18:08:50;;;;;;;19.47;8.13;;;;;;;;;;4887398;29;20453;-74
2023/12/06 18:11:16;;;;;;;11.37;7.30;;;;;;;;;;4889830;29;20459;-74
2023/12/06 18:13:42;;;;;;;13.27;7.53;;;;;;;;;;4896773;29;20484;-75
2023/12/06 18:16:08;;;;;;;11.70;6.47;;;;;;;;;;4899089;29;20474;-74
2023/12/06 18:18:34;;;;;;;15.87;6.07;;;;;;;;;;4898587;29;20419;-74
2023/12/06 18:21:00;;;;;;;11.93;6.93;;;;;;;;;;4898814;29;20424;-74
2023/12/06 18:23:26;;;;;;;12.13;7.50;;;;;;;;;;4898665;29;20451;-74
2023/12/06 18:25:52;;;;;;;12.67;6.00;;;;;;;;;;4895456;29;20936;-77
2023/12/06 18:28:18;;;;;;;12.70;6.53;;;;;;;;;;4894562;29;20423;-73
2023/12/06 18:30:44;;;;;;;9.40;6.80;;;;;;;;;;4898877;29;20424;-74
2023/12/06 18:33:10;;;;;;;16.43;7.00;;;;;;;;;;4898855;29;20762;-74
2023/12/06 18:35:36;;;;;;;10.83;6.40;;;;;;;;;;4898249;29;20474;-72
2023/12/06 18:38:03;;;;;;;9.87;6.10;;;;;;;;;;4898342;29;20420;-73
2023/12/06 18:40:29;;;;;;;10.27;6.03;;;;;;;;;;4898228;29;20423;-72
2023/12/06 18:42:55;;;;;;;13.80;6.80;;;;;;;;;;4898612;29;20419;-71
2023/12/06 18:45:21;;;;;;;11.50;6.83;;;;;;;;;;4898414;29;20543;-72
2023/12/06 18:47:47;;;;;;;11.87;6.67;;;;;;;;;;4898253;29;20563;-74
2023/12/06 18:50:14;;;;;;;12.13;7.37;;;;;;;;;;4897942;29;20467;-73
2023/12/06 18:52:40;;;;;;;14.53;7.50;;;;;;;;;;4898210;29;20427;-75
2023/12/06 18:55:06;;;;;;;15.03;6.60;;;;;;;;;;4898139;29;20482;-72
2023/12/06 18:57:32;;;;;;;12.77;7.00;;;;;;;;;;4898009;29;20782;-73
2023/12/06 18:59:58;;;;;;;13.20;7.30;;;;;;;;;;4897795;29;20423;-72
2023/12/06 19:02:24;;;;;;;16.03;8.73;;;;;;;;;;4898063;29;20424;-71
2023/12/06 19:04:50;;;;;;;13.20;7.73;;;;;;;;;;4897726;29;20471;-73
2023/12/06 19:07:16;;;;;;;18.30;7.50;;;;;;;;;;4897986;29;20431;-72
2023/12/06 19:09:42;;;;;;;12.53;7.23;;;;;;;;;;4897582;29;20518;-73
2023/12/06 19:12:08;;;;;;;14.50;8.00;;;;;;;;;;4896907;29;20423;-72
2023/12/06 19:14:34;;;;;;;16.80;8.00;;;;;;;;;;4897404;29;20549;-71
2023/12/06 19:17:00;;;;;;;16.20;8.10;;;;;;;;;;4891706;29;20834;-74
2023/12/06 19:19:27;;;;;;;20.00;8.40;;;;;;;;;;4897575;29;20798;-73
2023/12/06 19:21:53;;;;;;;15.90;8.50;;;;;;;;;;4897864;29;20422;-73
2023/12/06 19:24:19;;;;;;;14.17;6.87;;;;;;;;;;4897919;29;20427;-74
2023/12/06 19:26:44;;;;;;;13.73;8.53;;;;;;;;;;4897847;29;20427;-74
2023/12/06 19:29:10;;;;;;;14.47;9.43;;;;;;;;;;4897269;29;20514;-74
2023/12/06 19:31:36;;;;;;;12.40;7.70;;;;;;;;;;4897256;29;20427;-74
2023/12/06 19:34:03;;;;;;;14.30;8.00;;;;;;;;;;4897273;29;20434;-74
2023/12/06 19:36:29;;;;;;;18.27;7.93;;;;;;;;;;4897108;29;20526;-74
2023/12/06 19:38:55;;;;;;;13.90;7.63;;;;;;;;;;4896986;29;20474;-74
2023/12/06 19:41:22;;;;;;;14.97;7.37;;;;;;;;;;4897263;29;20430;-73
2023/12/06 19:43:48;;;;;;;19.27;9.43;;;;;;;;;;4894691;29;20438;-74
2023/12/06 19:46:14;;;;;;;12.10;7.43;;;;;;;;;;4891989;29;20455;-74
2023/12/06 19:48:40;;;;;;;14.87;8.50;;;;;;;;;;4897060;29;20839;-74
2023/12/06 19:51:06;;;;;;;16.97;8.10;;;;;;;;;;4896970;29;20424;-74
2023/12/06 19:53:35;;;;;;;17.00;7.47;;;;;;;;;;4897457;29;20510;-74
2023/12/06 19:56:01;;;;;;;13.97;8.43;;;;;;;;;;4893486;29;20472;-74
2023/12/06 19:58:27;;;;;;;16.67;8.70;;;;;;;;;;4897169;29;20428;-74
2023/12/06 20:00:53;;;;;;;14.43;7.23;;;;;;;;;;4901205;29;20415;-73
2023/12/06 20:03:19;;;;;;;17.67;8.87;;;;;;;;;;4902309;29;20489;-74
2023/12/06 20:05:45;;;;;;;13.40;7.53;;;;;;;;;;4901573;29;20457;-73
2023/12/06 20:08:11;;;;;;;9.30;7.10;;;;;;;;;;4893482;29;20746;-73
2023/12/06 20:10:37;;;;;;;17.10;7.30;;;;;;;;;;4885264;29;20438;-74
2023/12/06 20:13:03;;;;;;;13.13;7.40;;;;;;;;;;4897740;29;20431;-74
2023/12/06 20:15:29;;;;;;;16.17;7.87;;;;;;;;;;4897383;29;20787;-74
2023/12/06 20:17:55;;;;;;;16.73;8.27;;;;;;;;;;4885911;29;20441;-75
2023/12/06 20:20:21;;;;;;;13.90;7.47;;;;;;;;;;4878285;29;20447;-75
2023/12/06 20:22:47;;;;;;;16.43;7.03;;;;;;;;;;4892315;29;20439;-74
2023/12/06 20:25:13;;;;;;;11.60;6.57;;;;;;;;;;4877897;29;20459;-74
2023/12/06 20:27:39;;;;;;;15.17;7.93;;;;;;;;;;4877806;29;20424;-74
2023/12/06 20:30:06;;;;;;;14.50;7.43;;;;;;;;;;4882171;29;20423;-74